createdAt,value
2017-08-26T00:01:50.947Z,98.00
2017-08-26T00:04:17.001Z,97.90
2017-08-26T00:06:43.074Z,97.70
2017-08-26T00:09:09.118Z,97.50
2017-08-26T00:11:35.190Z,97.50
2017-08-26T00:14:01.241Z,97.40
2017-08-26T00:16:27.410Z,97.40
2017-08-26T00:18:53.462Z,97.40
2017-08-26T00:21:19.530Z,97.10
2017-08-26T00:23:45.573Z,97.20
2017-08-26T00:26:11.739Z,97.40
2017-08-26T00:28:37.786Z,97.60
2017-08-26T00:31:03.870Z,97.50
2017-08-26T00:33:29.934Z,97.50
2017-08-26T00:35:56.022Z,98.00
2017-08-26T00:38:22.182Z,98.40
2017-08-26T00:40:48.267Z,98.70
2017-08-26T00:43:14.321Z,99.10
2017-08-26T00:45:40.393Z,99.00
2017-08-26T00:48:06.451Z,99.00
2017-08-26T00:50:32.542Z,99.00
2017-08-26T00:52:58.610Z,99.20
2017-08-26T00:55:24.822Z,99.30
2017-08-26T00:57:50.882Z,99.40
2017-08-26T01:00:16.953Z,99.50
2017-08-26T01:02:43.034Z,99.50
2017-08-26T01:05:16.081Z,99.10
2017-08-26T01:07:42.138Z,98.70
2017-08-26T01:10:08.215Z,98.60
2017-08-26T01:12:34.274Z,98.50
2017-08-26T01:15:00.318Z,98.30
2017-08-26T01:17:26.399Z,98.20
2017-08-26T01:19:52.473Z,98.40
2017-08-26T01:22:18.560Z,98.50
2017-08-26T01:24:44.640Z,98.20
2017-08-26T01:27:10.714Z,98.00
2017-08-26T01:29:36.763Z,98.00
2017-08-26T01:32:02.845Z,97.90
2017-08-26T01:34:28.894Z,97.80
2017-08-26T01:36:54.968Z,98.10
2017-08-26T01:39:21.015Z,98.20
2017-08-26T01:41:47.094Z,98.30
2017-08-26T01:44:13.206Z,98.40
2017-08-26T01:46:39.278Z,98.40
2017-08-26T01:49:05.323Z,98.70
2017-08-26T01:51:31.390Z,98.80
2017-08-26T01:53:57.442Z,98.80
2017-08-26T01:56:23.515Z,98.70
2017-08-26T01:58:49.564Z,98.60
2017-08-26T02:01:15.651Z,98.60
2017-08-26T02:03:41.694Z,98.50
2017-08-26T02:06:07.781Z,98.30
2017-08-26T02:08:33.830Z,98.30
2017-08-26T02:10:59.911Z,98.40
2017-08-26T02:13:25.994Z,98.50
2017-08-26T02:15:52.066Z,98.40
2017-08-26T02:18:18.122Z,98.30
2017-08-26T02:20:44.177Z,98.40
2017-08-26T02:23:10.254Z,98.40
2017-08-26T02:25:36.378Z,98.50
2017-08-26T02:28:02.462Z,98.70
2017-08-26T02:30:28.534Z,98.90
2017-08-26T02:32:54.606Z,98.80
2017-08-26T02:35:20.660Z,98.80
2017-08-26T02:37:46.726Z,99.10
2017-08-26T02:40:12.774Z,99.20
2017-08-26T02:42:38.851Z,99.20
2017-08-26T02:45:04.911Z,99.00
2017-08-26T02:47:30.987Z,99.00
2017-08-26T02:49:57.074Z,99.00
2017-08-26T02:52:23.154Z,99.00
2017-08-26T02:54:49.207Z,99.00
2017-08-26T02:57:15.298Z,99.10
2017-08-26T02:59:41.366Z,99.00
2017-08-26T03:02:07.442Z,98.80
2017-08-26T03:04:33.512Z,98.80
2017-08-26T03:06:59.579Z,98.70
2017-08-26T03:09:25.643Z,98.80
2017-08-26T03:11:51.730Z,98.80
2017-08-26T03:14:17.794Z,98.70
2017-08-26T03:16:43.857Z,98.70
2017-08-26T03:19:09.913Z,98.70
2017-08-26T03:21:35.962Z,98.70
2017-08-26T03:24:02.035Z,98.90
2017-08-26T03:26:28.099Z,98.80
2017-08-26T03:28:54.169Z,98.70
2017-08-26T03:31:20.217Z,98.80
2017-08-26T03:33:46.291Z,98.80
2017-08-26T03:36:12.334Z,98.90
2017-08-26T03:38:38.397Z,98.80
2017-08-26T03:41:04.441Z,98.90
2017-08-26T03:43:30.497Z,98.90
2017-08-26T03:45:56.546Z,98.80
2017-08-26T03:48:22.618Z,98.60
2017-08-26T03:50:48.702Z,98.50
2017-08-26T03:53:14.806Z,98.50
2017-08-26T03:55:40.879Z,98.80
2017-08-26T03:58:06.920Z,98.50
2017-08-26T04:00:32.986Z,98.50
2017-08-26T04:02:59.029Z,98.40
2017-08-26T04:05:25.102Z,98.40
2017-08-26T04:07:51.153Z,98.50
2017-08-26T04:10:17.245Z,98.90
2017-08-26T04:12:43.293Z,98.60
2017-08-26T04:15:09.362Z,98.60
2017-08-26T04:17:35.418Z,98.60
2017-08-26T04:20:01.482Z,98.60
2017-08-26T04:22:27.559Z,98.60
2017-08-26T04:24:53.667Z,98.50
2017-08-26T04:27:19.715Z,98.40
2017-08-26T04:29:45.782Z,98.40
2017-08-26T04:32:11.841Z,98.30
2017-08-26T04:34:37.913Z,98.40
2017-08-26T04:37:03.969Z,98.60
2017-08-26T04:39:30.109Z,98.60
2017-08-26T04:41:56.198Z,98.50
2017-08-26T04:44:22.250Z,98.60
2017-08-26T04:46:48.331Z,98.60
2017-08-26T04:49:14.417Z,98.50
2017-08-26T04:51:42.507Z,98.50
2017-08-26T04:54:08.570Z,98.50
2017-08-26T04:56:34.646Z,98.50
2017-08-26T04:59:00.722Z,98.40
2017-08-26T05:01:26.796Z,98.40
2017-08-26T05:03:52.937Z,98.50
2017-08-26T05:06:19.010Z,98.40
2017-08-26T05:08:45.126Z,98.40
2017-08-26T05:11:11.321Z,98.50
2017-08-26T05:13:37.383Z,98.50
2017-08-26T05:16:03.466Z,98.90
2017-08-26T05:18:29.542Z,98.50
2017-08-26T05:20:55.662Z,98.40
2017-08-26T05:23:21.728Z,98.40
2017-08-26T05:25:47.856Z,98.40
2017-08-26T05:28:14.014Z,98.50
2017-08-26T05:30:40.230Z,98.40
2017-08-26T05:33:06.286Z,98.30
2017-08-26T05:35:32.422Z,98.20
2017-08-26T05:37:58.502Z,98.00
2017-08-26T05:40:24.561Z,97.90
2017-08-26T05:42:50.654Z,97.70
2017-08-26T05:45:16.726Z,97.80
2017-08-26T05:47:42.787Z,97.70
2017-08-26T05:50:08.834Z,97.90
2017-08-26T05:52:35.230Z,97.40
2017-08-26T05:55:01.474Z,97.30
2017-08-26T05:57:27.534Z,97.10
2017-08-26T05:59:53.583Z,96.90
2017-08-26T06:02:19.703Z,97.00
2017-08-26T06:04:45.758Z,96.70
2017-08-26T06:07:11.832Z,96.70
2017-08-26T06:09:39.376Z,96.40
2017-08-26T06:12:05.475Z,96.10
2017-08-26T06:14:31.533Z,96.20
2017-08-26T06:16:57.582Z,96.00
2017-08-26T06:19:23.652Z,95.70
2017-08-26T06:21:49.762Z,95.70
2017-08-26T06:24:15.999Z,95.70
2017-08-26T06:26:42.068Z,95.60
2017-08-26T06:29:08.126Z,95.30
2017-08-26T06:31:34.162Z,95.30
2017-08-26T06:34:00.975Z,95.40
2017-08-26T06:36:27.030Z,95.40
2017-08-26T06:38:53.138Z,95.10
2017-08-26T06:41:19.190Z,95.10
2017-08-26T06:43:45.245Z,95.00
2017-08-26T06:46:11.310Z,95.00
2017-08-26T06:48:37.378Z,94.80
2017-08-26T06:51:03.425Z,94.40
2017-08-26T06:53:29.502Z,94.50
2017-08-26T06:55:55.545Z,94.50
2017-08-26T06:58:21.604Z,94.30
2017-08-26T07:00:47.675Z,94.40
2017-08-26T07:03:13.817Z,94.30
2017-08-26T07:05:39.860Z,94.40
2017-08-26T07:08:05.914Z,94.40
2017-08-26T07:10:31.960Z,94.40
2017-08-26T07:12:58.026Z,94.30
2017-08-26T07:15:24.066Z,94.30
2017-08-26T07:17:50.130Z,94.30
2017-08-26T07:20:16.194Z,94.20
2017-08-26T07:22:42.234Z,93.90
2017-08-26T07:25:08.402Z,93.90
2017-08-26T07:27:34.450Z,94.00
2017-08-26T07:30:00.510Z,94.00
2017-08-26T07:32:26.566Z,93.80
2017-08-26T07:34:52.646Z,93.60
2017-08-26T07:37:18.698Z,93.80
2017-08-26T07:39:44.829Z,93.60
2017-08-26T07:42:10.879Z,93.50
2017-08-26T07:44:36.950Z,93.30
2017-08-26T07:47:02.993Z,92.90
2017-08-26T07:49:29.699Z,93.00
2017-08-26T07:51:55.754Z,93.00
2017-08-26T07:54:21.839Z,92.90
2017-08-26T07:56:47.894Z,92.70
2017-08-26T07:59:13.962Z,92.70
2017-08-26T08:01:40.046Z,92.60
2017-08-26T08:04:06.094Z,92.10
2017-08-26T08:06:32.206Z,91.80
2017-08-26T08:08:58.258Z,92.00
2017-08-26T08:11:24.319Z,91.70
2017-08-26T08:13:50.365Z,91.70
2017-08-26T08:16:16.423Z,91.40
2017-08-26T08:18:42.474Z,91.20
2017-08-26T08:21:08.537Z,91.40
2017-08-26T08:23:34.578Z,91.40
2017-08-26T08:26:00.670Z,90.90
2017-08-26T08:28:26.738Z,90.80
2017-08-26T08:30:52.787Z,91.20
2017-08-26T08:33:18.851Z,90.40
2017-08-26T08:35:44.923Z,90.80
2017-08-26T08:38:10.990Z,90.40
2017-08-26T08:40:37.058Z,90.30
2017-08-26T08:43:03.111Z,89.10
2017-08-26T08:45:29.170Z,89.70
2017-08-26T08:47:55.233Z,89.30
2017-08-26T08:50:21.287Z,89.20
2017-08-26T08:52:47.358Z,88.80
2017-08-26T08:55:13.466Z,88.50
2017-08-26T08:57:39.539Z,87.50
2017-08-26T09:00:05.585Z,87.40
2017-08-26T09:02:31.647Z,86.30
2017-08-26T09:04:57.694Z,86.80
2017-08-26T09:07:23.761Z,86.90
2017-08-26T09:09:49.818Z,85.40
2017-08-26T09:12:15.898Z,84.90
2017-08-26T09:14:41.942Z,84.10
2017-08-26T09:17:08.021Z,84.10
2017-08-26T09:19:34.087Z,83.20
2017-08-26T09:22:00.150Z,83.10
2017-08-26T09:24:26.221Z,82.90
2017-08-26T09:26:52.306Z,82.40
2017-08-26T09:29:18.370Z,82.50
2017-08-26T09:31:44.415Z,81.80
2017-08-26T09:34:10.478Z,81.20
2017-08-26T09:36:36.762Z,81.60
2017-08-26T09:39:02.838Z,80.90
2017-08-26T09:41:28.935Z,81.20
2017-08-26T09:43:54.991Z,81.30
2017-08-26T09:46:21.167Z,81.00
2017-08-26T09:48:47.238Z,81.60
2017-08-26T09:51:13.314Z,81.00
2017-08-26T09:53:39.421Z,82.10
2017-08-26T09:56:12.497Z,81.30
2017-08-26T09:58:38.577Z,81.70
2017-08-26T10:01:26.487Z,80.00
2017-08-26T10:03:52.557Z,81.00
2017-08-26T10:06:18.603Z,81.60
2017-08-26T10:08:44.666Z,80.70
2017-08-26T10:11:10.705Z,80.70
2017-08-26T10:13:36.770Z,79.50
2017-08-26T10:16:02.826Z,80.80
2017-08-26T10:18:28.899Z,80.20
2017-08-26T10:20:54.945Z,81.30
2017-08-26T10:23:21.007Z,80.90
2017-08-26T10:25:47.074Z,81.20
2017-08-26T10:28:13.153Z,81.70
2017-08-26T10:30:39.230Z,81.30
2017-08-26T10:33:05.323Z,81.20
2017-08-26T10:35:31.377Z,82.40
2017-08-26T10:37:57.453Z,80.40
2017-08-26T10:40:23.527Z,81.50
2017-08-26T10:42:49.607Z,81.00
2017-08-26T10:45:15.666Z,82.20
2017-08-26T10:47:42.582Z,81.30
2017-08-26T10:50:08.650Z,82.00
2017-08-26T10:52:34.730Z,80.10
2017-08-26T10:55:00.771Z,79.20
2017-08-26T10:57:26.833Z,79.10
2017-08-26T10:59:52.952Z,79.20
2017-08-26T11:02:19.030Z,79.40
2017-08-26T11:04:45.110Z,77.30
2017-08-26T11:07:11.219Z,78.30
2017-08-26T11:09:37.275Z,78.10
2017-08-26T11:12:03.334Z,77.00
2017-08-26T11:14:29.751Z,77.40
2017-08-26T11:16:55.802Z,76.30
2017-08-26T11:19:21.854Z,76.80
2017-08-26T11:21:47.950Z,76.70
2017-08-26T11:24:14.078Z,76.40
2017-08-26T11:26:40.141Z,75.00
2017-08-26T11:29:06.190Z,73.40
2017-08-26T11:31:32.498Z,74.00
2017-08-26T11:33:58.771Z,74.80
2017-08-26T11:36:24.850Z,75.50
2017-08-26T11:38:50.902Z,75.90
2017-08-26T11:41:16.966Z,75.70
2017-08-26T11:43:43.010Z,75.70
2017-08-26T11:46:09.093Z,76.10
2017-08-26T11:48:35.145Z,77.80
2017-08-26T11:51:01.226Z,76.00
2017-08-26T11:53:27.277Z,76.30
2017-08-26T11:55:53.326Z,75.30
2017-08-26T11:58:19.378Z,75.00
2017-08-26T12:00:45.453Z,75.50
2017-08-26T12:03:11.505Z,75.20
2017-08-26T12:05:37.574Z,74.40
2017-08-26T12:08:03.669Z,74.10
2017-08-26T12:10:29.734Z,74.00
2017-08-26T12:12:55.792Z,73.40
2017-08-26T12:15:21.863Z,71.60
2017-08-26T12:17:47.918Z,71.70
2017-08-26T12:20:14.054Z,72.80
2017-08-26T12:22:40.102Z,71.70
2017-08-26T12:25:06.178Z,72.20
2017-08-26T12:27:32.231Z,72.10
2017-08-26T12:29:58.293Z,72.20
2017-08-26T12:32:24.346Z,73.20
2017-08-26T12:34:50.413Z,72.80
2017-08-26T12:37:16.455Z,71.90
2017-08-26T12:39:42.530Z,69.70
2017-08-26T12:42:08.598Z,68.40
2017-08-26T12:44:34.686Z,66.20
2017-08-26T12:47:00.734Z,64.60
2017-08-26T12:49:26.790Z,62.90
2017-08-26T12:51:52.858Z,59.90
2017-08-26T12:54:18.906Z,58.40
2017-08-26T12:56:44.970Z,57.10
2017-08-26T12:59:11.013Z,55.30
2017-08-26T13:01:37.082Z,55.50
2017-08-26T13:04:03.153Z,54.50
2017-08-26T13:06:29.215Z,53.70
2017-08-26T13:08:55.335Z,54.80
2017-08-26T13:11:21.399Z,53.30
2017-08-26T13:13:47.446Z,54.60
2017-08-26T13:16:13.526Z,56.40
2017-08-26T13:18:39.635Z,56.50
2017-08-26T13:21:05.694Z,57.60
2017-08-26T13:23:31.742Z,58.50
2017-08-26T13:25:57.813Z,60.00
2017-08-26T13:28:23.862Z,60.50
2017-08-26T13:30:49.929Z,62.70
2017-08-26T13:33:15.982Z,60.70
2017-08-26T13:35:42.046Z,61.00
2017-08-26T13:38:08.111Z,62.10
2017-08-26T13:40:34.159Z,62.40
2017-08-26T13:43:00.230Z,63.50
2017-08-26T13:45:26.273Z,65.20
2017-08-26T13:47:52.340Z,66.70
2017-08-26T13:50:18.404Z,67.50
2017-08-26T13:52:44.486Z,69.20
2017-08-26T13:55:10.530Z,71.20
2017-08-26T13:57:36.599Z,71.40
2017-08-26T14:00:02.658Z,70.90
2017-08-26T14:02:28.981Z,70.00
2017-08-26T14:04:55.034Z,71.90
2017-08-26T14:07:21.102Z,71.70
2017-08-26T14:09:47.145Z,72.00
2017-08-26T14:12:13.203Z,71.90
2017-08-26T14:14:39.260Z,71.20
2017-08-26T14:17:05.314Z,68.80
2017-08-26T14:19:31.371Z,65.80
2017-08-26T14:21:57.434Z,65.60
2017-08-26T14:24:23.502Z,64.50
2017-08-26T14:26:49.565Z,65.10
2017-08-26T14:29:15.630Z,65.80
2017-08-26T14:31:41.698Z,67.60
2017-08-26T14:34:07.746Z,67.60
2017-08-26T14:36:33.812Z,67.80
2017-08-26T14:38:59.881Z,68.90
2017-08-26T14:41:25.934Z,69.00
2017-08-26T14:43:51.994Z,69.80
2017-08-26T14:46:18.046Z,70.00
2017-08-26T14:48:44.129Z,70.10
2017-08-26T14:51:10.190Z,70.30
2017-08-26T14:53:36.255Z,70.50
2017-08-26T14:56:02.298Z,69.50
2017-08-26T14:58:28.358Z,68.60
2017-08-26T15:00:54.398Z,69.60
2017-08-26T15:03:20.487Z,70.00
2017-08-26T15:05:46.526Z,70.10
2017-08-26T15:08:12.615Z,69.00
2017-08-26T15:10:38.703Z,67.40
2017-08-26T15:13:04.778Z,66.50
2017-08-26T15:15:30.822Z,67.50
2017-08-26T15:17:56.886Z,64.80
2017-08-26T15:20:22.929Z,64.60
2017-08-26T15:22:48.985Z,64.60
2017-08-26T15:25:15.055Z,66.30
2017-08-26T15:27:41.098Z,65.90
2017-08-26T15:30:07.170Z,65.10
2017-08-26T15:32:33.219Z,65.30
2017-08-26T15:34:59.290Z,62.70
2017-08-26T15:37:25.330Z,63.10
2017-08-26T15:39:51.399Z,64.40
2017-08-26T15:42:17.451Z,64.70
2017-08-26T15:44:43.530Z,65.70
2017-08-26T15:47:09.586Z,66.50
2017-08-26T15:49:35.658Z,68.10
2017-08-26T15:52:01.702Z,68.70
2017-08-26T15:54:27.780Z,69.20
2017-08-26T15:56:53.827Z,71.30
2017-08-26T15:59:19.888Z,71.20
2017-08-26T16:01:45.930Z,72.10
2017-08-26T16:04:11.990Z,73.10
2017-08-26T16:06:38.050Z,73.50
2017-08-26T16:09:04.109Z,74.30
2017-08-26T16:11:30.171Z,74.40
2017-08-26T16:13:56.250Z,76.30
2017-08-26T16:16:23.038Z,76.00
2017-08-26T16:18:49.114Z,76.00
2017-08-26T16:21:15.166Z,76.30
2017-08-26T16:23:41.283Z,77.70
2017-08-26T16:26:07.336Z,78.90
2017-08-26T16:28:33.387Z,78.40
2017-08-26T16:30:59.450Z,79.40
2017-08-26T16:33:25.495Z,80.60
2017-08-26T16:35:51.558Z,80.90
2017-08-26T16:38:17.598Z,81.30
2017-08-26T16:40:43.657Z,81.90
2017-08-26T16:43:09.697Z,82.90
2017-08-26T16:45:35.758Z,82.50
2017-08-26T16:48:01.815Z,82.80
2017-08-26T16:50:28.615Z,83.60
2017-08-26T16:52:54.662Z,83.60
2017-08-26T16:55:20.770Z,84.80
2017-08-26T16:57:46.813Z,84.90
2017-08-26T17:00:12.858Z,85.00
2017-08-26T17:02:38.925Z,84.70
2017-08-26T17:05:04.961Z,84.60
2017-08-26T17:07:31.017Z,84.10
2017-08-26T17:09:57.057Z,85.00
2017-08-26T17:12:23.114Z,84.80
2017-08-26T17:14:49.215Z,86.30
2017-08-26T17:17:15.274Z,87.20
2017-08-26T17:19:41.411Z,87.90
2017-08-26T17:22:07.477Z,88.00
2017-08-26T17:24:33.551Z,87.50
2017-08-26T17:26:59.598Z,87.50
2017-08-26T17:29:25.690Z,87.20
2017-08-26T17:31:51.804Z,89.40
2017-08-26T17:34:17.866Z,89.60
2017-08-26T17:36:43.922Z,89.60
2017-08-26T17:39:10.003Z,90.10
2017-08-26T17:41:36.075Z,90.20
2017-08-26T17:44:02.134Z,90.60
2017-08-26T17:46:28.211Z,90.80
2017-08-26T17:48:54.261Z,91.40
2017-08-26T17:51:20.305Z,91.60
2017-08-26T17:53:46.361Z,91.90
2017-08-26T17:56:12.410Z,92.70
2017-08-26T17:58:38.458Z,92.50
2017-08-26T18:01:04.538Z,93.30
2017-08-26T18:03:30.598Z,93.20
2017-08-26T18:05:56.666Z,93.50
2017-08-26T18:08:22.710Z,93.70
2017-08-26T18:10:48.775Z,94.10
2017-08-26T18:13:14.817Z,94.30
2017-08-26T18:15:40.883Z,94.90
2017-08-26T18:18:06.932Z,95.50
2017-08-26T18:20:32.982Z,96.20
2017-08-26T18:22:59.045Z,96.20
2017-08-26T18:25:25.114Z,96.30
2017-08-26T18:27:51.177Z,96.10
2017-08-26T18:30:17.241Z,96.80
2017-08-26T18:32:43.318Z,96.80
2017-08-26T18:35:09.383Z,96.80
2017-08-26T18:37:35.476Z,96.80
2017-08-26T18:40:01.531Z,96.80
2017-08-26T18:42:27.606Z,96.50
2017-08-26T18:44:53.662Z,97.30
2017-08-26T18:47:19.734Z,96.90
2017-08-26T18:49:45.789Z,96.80
2017-08-26T18:52:11.860Z,96.70
2017-08-26T18:54:37.937Z,96.80
2017-08-26T18:57:04.022Z,97.60
2017-08-26T18:59:30.087Z,97.90
2017-08-26T19:01:56.187Z,98.40
2017-08-26T19:04:22.234Z,98.80
2017-08-26T19:06:48.330Z,99.00
2017-08-26T19:09:15.238Z,98.90
2017-08-26T19:11:41.333Z,99.20
2017-08-26T19:14:07.398Z,98.80
2017-08-26T19:16:33.454Z,98.80
2017-08-26T19:18:59.493Z,99.20
2017-08-26T19:21:25.596Z,99.10
2017-08-26T19:23:51.810Z,99.00
2017-08-26T19:26:17.889Z,98.70
2017-08-26T19:28:43.930Z,98.80
2017-08-26T19:31:10.022Z,98.80
2017-08-26T19:33:36.081Z,98.80
2017-08-26T19:36:02.178Z,99.00
2017-08-26T19:38:28.219Z,99.40
2017-08-26T19:40:54.282Z,99.70
2017-08-26T19:43:20.331Z,99.90
2017-08-26T19:45:46.391Z,99.90
2017-08-26T19:48:12.433Z,99.90
2017-08-26T19:50:38.502Z,99.90
2017-08-26T19:53:04.558Z,99.90
2017-08-26T19:55:30.656Z,99.90
2017-08-26T19:57:56.697Z,99.30
2017-08-26T20:00:22.743Z,99.50
2017-08-26T20:02:48.797Z,99.30
2017-08-26T20:05:14.858Z,99.10
2017-08-26T20:07:40.905Z,98.90
2017-08-26T20:10:06.974Z,99.20
2017-08-26T20:12:33.033Z,99.80
2017-08-26T20:14:59.094Z,99.60
2017-08-26T20:17:25.180Z,99.70
2017-08-26T20:19:51.239Z,99.80
2017-08-26T20:22:17.326Z,99.90
2017-08-26T20:24:43.386Z,99.90
2017-08-26T20:27:09.454Z,99.90
2017-08-26T20:29:35.513Z,99.90
2017-08-26T20:32:01.655Z,99.90
2017-08-26T20:34:27.702Z,99.90
2017-08-26T20:36:53.774Z,99.90
2017-08-26T20:39:19.827Z,99.90
2017-08-26T20:41:45.918Z,99.90
2017-08-26T20:44:11.978Z,99.90
2017-08-26T20:46:38.046Z,99.90
2017-08-26T20:49:04.122Z,99.90
2017-08-26T20:51:30.157Z,99.90
2017-08-26T20:53:56.214Z,99.90
2017-08-26T20:56:22.326Z,99.90
2017-08-26T20:58:48.465Z,99.90
2017-08-26T21:01:14.610Z,99.90
2017-08-26T21:03:40.996Z,99.90
2017-08-26T21:06:07.068Z,99.90
2017-08-26T21:08:33.141Z,99.90
2017-08-26T21:10:59.212Z,99.90
2017-08-26T21:13:25.319Z,99.90
2017-08-26T21:15:51.407Z,99.90
2017-08-26T21:18:17.471Z,99.90
2017-08-26T21:20:43.529Z,99.90
2017-08-26T21:23:09.578Z,99.90
2017-08-26T21:25:35.657Z,99.90
2017-08-26T21:28:01.695Z,99.90
2017-08-26T21:30:27.782Z,99.90
2017-08-26T21:32:53.826Z,99.90
2017-08-26T21:35:19.894Z,99.90
2017-08-26T21:37:45.947Z,99.90
2017-08-26T21:40:12.022Z,99.90
2017-08-26T21:42:38.094Z,99.90
2017-08-26T21:45:04.179Z,99.90
2017-08-26T21:47:30.217Z,99.90
2017-08-26T21:49:56.444Z,99.90
2017-08-26T21:52:22.646Z,99.90
2017-08-26T21:54:48.983Z,99.90
2017-08-26T21:57:15.084Z,99.90
2017-08-26T21:59:41.166Z,99.90
2017-08-26T22:02:07.230Z,99.90
2017-08-26T22:04:33.323Z,99.90
2017-08-26T22:06:59.382Z,99.90
2017-08-26T22:09:25.493Z,99.90
2017-08-26T22:11:51.587Z,99.90
2017-08-26T22:14:17.775Z,99.90
2017-08-26T22:16:43.874Z,99.90
2017-08-26T22:19:09.951Z,99.90
2017-08-26T22:21:36.030Z,99.90
2017-08-26T22:24:02.231Z,99.90
2017-08-26T22:26:28.315Z,99.90
2017-08-26T22:28:54.396Z,99.90
2017-08-26T22:31:20.658Z,99.90
2017-08-26T22:33:46.710Z,99.90
2017-08-26T22:36:12.754Z,99.90
2017-08-26T22:38:39.026Z,99.90
2017-08-26T22:41:05.077Z,99.90
2017-08-26T22:43:31.140Z,99.90
2017-08-26T22:45:57.276Z,99.90
2017-08-26T22:48:23.352Z,99.90
2017-08-26T22:50:49.462Z,99.90
2017-08-26T22:53:15.600Z,99.90
2017-08-26T22:55:41.651Z,99.90
2017-08-26T22:58:07.724Z,99.90
2017-08-26T23:00:33.774Z,99.90
2017-08-26T23:02:59.823Z,99.90
2017-08-26T23:05:25.905Z,99.90
2017-08-26T23:07:51.951Z,99.90
2017-08-26T23:10:18.154Z,99.90
2017-08-26T23:12:44.193Z,99.90
2017-08-26T23:15:10.278Z,99.90
2017-08-26T23:17:36.322Z,99.90
2017-08-26T23:20:02.417Z,99.90
2017-08-26T23:22:28.466Z,99.90
2017-08-26T23:24:54.533Z,99.90
2017-08-26T23:27:20.595Z,99.90
2017-08-26T23:29:46.662Z,99.90
2017-08-26T23:32:12.706Z,99.90
2017-08-26T23:34:38.790Z,99.90
2017-08-26T23:37:04.838Z,99.90
2017-08-26T23:39:30.913Z,99.90
2017-08-26T23:41:57.055Z,99.90
2017-08-26T23:44:23.141Z,99.90
2017-08-26T23:46:49.182Z,99.90
2017-08-26T23:49:15.246Z,99.90
2017-08-26T23:51:41.312Z,99.90
2017-08-26T23:54:07.358Z,99.90
2017-08-26T23:56:33.409Z,99.90
2017-08-26T23:58:59.464Z,99.90
